Time;durP1;ratioP1;P1;durP2;ratioP2;P2;SDS_P1;SDS_P2;PMS_P1;PMS_P2;Temp;Humidity;BMP_temperature;BMP_pressure;BME280_temperature;BME280_humidity;BME280_pressure;Samples;Min_cycle;Max_cycle;Signal;HPM_P1;HPM_P2
2021/08/26 00:07:05;;;;;;;16.93;15.20;;;15.50;99.90;;;;;;5025423;28;20460;-71
2021/08/26 00:09:32;;;;;;;16.43;14.80;;;15.50;99.90;;;;;;5025288;28;20553;-71
2021/08/26 00:11:59;;;;;;;15.10;13.80;;;15.40;99.90;;;;;;5021902;28;20853;-71
2021/08/26 00:14:26;;;;;;;15.97;14.67;;;15.40;99.90;;;;;;5028245;28;20461;-72
2021/08/26 00:16:53;;;;;;;16.20;14.70;;;15.30;99.90;;;;;;5023220;28;20472;-71
2021/08/26 00:19:21;;;;;;;16.10;14.57;;;15.30;99.90;;;;;;5036758;28;20456;-70
2021/08/26 00:21:48;;;;;;;17.30;15.53;;;15.30;99.90;;;;;;5031454;28;20461;-72
2021/08/26 00:24:16;;;;;;;16.80;15.10;;;15.30;99.90;;;;;;5035424;28;21131;-71
2021/08/26 00:26:43;;;;;;;16.13;14.40;;;15.20;99.90;;;;;;5021412;28;20472;-71
2021/08/26 00:29:10;;;;;;;15.03;13.63;;;15.30;99.90;;;;;;5036519;27;20535;-70
2021/08/26 00:31:37;;;;;;;15.03;13.60;;;15.30;99.90;;;;;;5026905;28;20460;-71
2021/08/26 00:34:04;;;;;;;15.47;13.93;;;15.40;99.90;;;;;;5026649;28;20468;-71
2021/08/26 00:36:33;;;;;;;17.20;15.50;;;15.40;99.90;;;;;;5030929;28;20461;-72
2021/08/26 00:39:00;;;;;;;16.70;15.30;;;15.40;99.90;;;;;;5031510;28;20459;-72
2021/08/26 00:41:27;;;;;;;16.93;15.47;;;15.40;99.90;;;;;;5033606;28;20461;-72
2021/08/26 00:43:54;;;;;;;17.93;16.30;;;15.40;99.90;;;;;;5025748;28;20472;-72
2021/08/26 00:46:22;;;;;;;17.10;15.37;;;15.50;99.90;;;;;;5016271;28;20452;-71
2021/08/26 00:48:50;;;;;;;17.43;15.73;;;15.50;99.90;;;;;;5029512;28;20476;-71
2021/08/26 00:51:17;;;;;;;15.67;14.10;;;15.40;99.90;;;;;;5032363;28;20815;-72
2021/08/26 00:53:48;;;;;;;16.40;14.83;;;15.50;99.90;;;;;;5031198;28;20463;-71
2021/08/26 00:56:16;;;;;;;16.63;15.20;;;15.40;99.90;;;;;;5029606;28;20452;-71
2021/08/26 00:58:45;;;;;;;16.83;15.53;;;15.40;99.90;;;;;;5035976;28;20491;-71
2021/08/26 01:01:12;;;;;;;17.60;16.13;;;15.50;99.90;;;;;;5031777;28;20460;-73
2021/08/26 01:03:45;;;;;;;18.67;17.17;;;15.50;99.90;;;;;;5030221;27;20630;-70
2021/08/26 01:06:14;;;;;;;19.33;17.73;;;15.50;99.90;;;;;;5027923;28;20585;-71
2021/08/26 01:08:56;;;;;;;18.80;17.30;;;15.50;99.90;;;;;;5031822;28;20480;-69
2021/08/26 01:11:24;;;;;;;20.17;18.13;;;15.40;99.90;;;;;;5029794;28;20474;-69
2021/08/26 01:13:53;;;;;;;20.87;19.13;;;15.40;99.90;;;;;;5030417;28;20452;-69
2021/08/26 01:16:21;;;;;;;21.03;19.20;;;15.40;99.90;;;;;;5033468;27;20507;-71
2021/08/26 01:18:49;;;;;;;22.20;20.50;;;15.30;99.90;;;;;;5036556;28;20456;-68
2021/08/26 01:21:18;;;;;;;23.97;21.70;;;15.30;99.90;;;;;;5020902;28;20466;-71
2021/08/26 01:23:48;;;;;;;22.43;20.70;;;15.40;99.90;;;;;;5031400;28;20994;-68
2021/08/26 01:26:23;;;;;;;25.80;23.70;;;15.30;99.90;;;;;;5031405;28;20460;-68
2021/08/26 01:28:51;;;;;;;26.17;24.00;;;15.20;99.90;;;;;;5031645;27;20515;-69
2021/08/26 01:31:20;;;;;;;26.17;24.17;;;15.30;99.90;;;;;;5020767;28;20476;-71
2021/08/26 01:33:48;;;;;;;26.30;24.23;;;15.30;99.90;;;;;;5024881;28;20453;-68
2021/08/26 01:36:15;;;;;;;24.73;22.93;;;15.30;99.90;;;;;;5035029;28;20475;-68
2021/08/26 01:38:43;;;;;;;25.53;23.50;;;15.30;99.90;;;;;;5028861;28;20497;-68
2021/08/26 01:41:10;;;;;;;25.00;23.10;;;15.20;99.90;;;;;;5029065;28;20461;-68
2021/08/26 01:43:38;;;;;;;23.93;22.13;;;15.30;99.90;;;;;;5028154;28;20493;-68
2021/08/26 01:46:05;;;;;;;23.80;22.10;;;15.30;99.90;;;;;;5027904;28;20993;-68
2021/08/26 01:48:32;;;;;;;24.87;23.10;;;15.30;99.90;;;;;;5028615;28;20484;-69
2021/08/26 01:50:59;;;;;;;24.93;23.03;;;15.30;99.90;;;;;;5030499;28;20456;-69
2021/08/26 01:53:26;;;;;;;24.77;22.60;;;15.30;99.90;;;;;;5027841;28;20469;-68
2021/08/26 01:55:53;;;;;;;24.60;22.70;;;15.30;99.90;;;;;;5035485;28;20476;-71
2021/08/26 01:58:20;;;;;;;24.43;22.53;;;15.30;99.90;;;;;;5034447;28;21196;-69
2021/08/26 02:00:48;;;;;;;26.20;24.20;;;15.30;99.90;;;;;;5039263;28;20829;-69
2021/08/26 02:03:15;;;;;;;24.67;22.97;;;15.30;99.90;;;;;;5028252;28;20461;-68
2021/08/26 02:05:42;;;;;;;25.10;23.30;;;15.30;99.90;;;;;;5027618;28;20471;-69
2021/08/26 02:08:08;;;;;;;24.17;22.47;;;15.30;99.90;;;;;;5028167;28;20818;-70
2021/08/26 02:10:35;;;;;;;24.17;22.57;;;15.30;99.90;;;;;;5029360;28;20947;-68
2021/08/26 02:13:02;;;;;;;24.27;22.57;;;15.30;99.90;;;;;;5028309;28;20464;-69
2021/08/26 02:15:30;;;;;;;25.63;23.53;;;15.30;99.90;;;;;;5026074;28;20473;-68
2021/08/26 02:17:58;;;;;;;26.60;24.23;;;15.30;99.90;;;;;;5034648;28;20459;-69
2021/08/26 02:20:25;;;;;;;26.43;24.23;;;15.30;99.90;;;;;;5029778;28;20893;-69
2021/08/26 02:22:52;;;;;;;25.47;23.57;;;15.30;99.90;;;;;;5031203;28;20511;-68
2021/08/26 02:25:19;;;;;;;24.50;22.50;;;15.30;99.90;;;;;;5035599;28;20465;-68
2021/08/26 02:27:46;;;;;;;24.90;23.00;;;15.30;99.90;;;;;;5044224;27;20843;-68
2021/08/26 02:30:13;;;;;;;25.40;23.10;;;15.20;99.90;;;;;;5030863;28;20493;-70
2021/08/26 02:32:40;;;;;;;22.67;21.07;;;15.30;99.90;;;;;;5029471;28;20468;-71
2021/08/26 02:35:09;;;;;;;22.93;21.20;;;15.20;99.90;;;;;;5028656;28;20543;-69
2021/08/26 02:37:36;;;;;;;21.83;20.13;;;15.20;99.90;;;;;;5025596;28;20468;-68
2021/08/26 02:40:04;;;;;;;22.80;20.80;;;15.20;99.90;;;;;;5030141;28;20918;-69
2021/08/26 02:42:31;;;;;;;23.50;21.47;;;15.10;99.90;;;;;;5023574;28;20575;-70
2021/08/26 02:44:57;;;;;;;21.47;19.97;;;15.20;99.90;;;;;;5023329;28;20458;-70
2021/08/26 02:47:24;;;;;;;22.20;20.50;;;15.10;99.90;;;;;;5026042;28;20483;-69
2021/08/26 02:49:51;;;;;;;21.67;19.70;;;15.20;99.90;;;;;;5034856;27;20492;-71
2021/08/26 02:52:19;;;;;;;21.23;19.63;;;15.20;99.90;;;;;;5037418;28;20978;-69
2021/08/26 02:54:46;;;;;;;22.30;20.30;;;15.20;99.90;;;;;;5032560;28;20838;-69
2021/08/26 02:57:13;;;;;;;21.00;19.50;;;15.20;99.90;;;;;;5034196;28;20506;-70
2021/08/26 02:59:40;;;;;;;21.77;19.87;;;15.20;99.90;;;;;;5037058;28;20828;-69
2021/08/26 03:02:07;;;;;;;22.20;20.20;;;15.20;99.90;;;;;;5018641;28;20468;-69
2021/08/26 03:04:34;;;;;;;21.83;19.97;;;15.20;99.90;;;;;;5030509;28;20466;-69
2021/08/26 03:07:00;;;;;;;21.67;19.97;;;15.20;99.90;;;;;;5020522;28;20831;-69
2021/08/26 03:09:29;;;;;;;21.83;19.93;;;15.20;99.90;;;;;;5039068;28;21112;-68
2021/08/26 03:11:55;;;;;;;21.27;19.77;;;15.30;99.90;;;;;;5033151;28;20464;-69
2021/08/26 03:14:22;;;;;;;22.33;20.40;;;15.30;99.90;;;;;;5031641;28;20463;-68
2021/08/26 03:16:50;;;;;;;20.27;18.77;;;15.30;99.90;;;;;;5031593;28;20496;-70
2021/08/26 03:19:17;;;;;;;21.17;19.43;;;15.20;99.90;;;;;;5030658;28;21065;-70
2021/08/26 03:21:43;;;;;;;21.50;19.80;;;15.20;99.90;;;;;;5032029;28;20469;-69
2021/08/26 03:24:10;;;;;;;21.00;19.50;;;15.20;99.90;;;;;;5036832;28;20456;-69
2021/08/26 03:26:38;;;;;;;20.47;19.00;;;15.10;99.90;;;;;;5032022;28;20464;-69
2021/08/26 03:29:05;;;;;;;19.80;18.40;;;15.10;99.90;;;;;;5042943;27;20483;-68
2021/08/26 03:31:32;;;;;;;21.30;19.47;;;15.10;99.90;;;;;;5034435;28;20794;-70
2021/08/26 03:33:59;;;;;;;21.77;19.63;;;15.00;99.90;;;;;;5029414;28;20467;-68
2021/08/26 03:36:27;;;;;;;23.20;21.13;;;15.00;99.90;;;;;;5034936;28;21132;-68
2021/08/26 03:38:55;;;;;;;23.00;21.20;;;14.90;99.90;;;;;;5036064;28;20495;-69
2021/08/26 03:41:22;;;;;;;22.20;20.60;;;14.90;99.90;;;;;;5032344;28;20461;-69
2021/08/26 03:43:51;;;;;;;21.93;19.93;;;14.90;99.90;;;;;;5038517;28;20466;-68
2021/08/26 03:46:18;;;;;;;22.27;20.30;;;14.90;99.90;;;;;;5028855;28;20460;-68
2021/08/26 03:48:45;;;;;;;22.07;20.00;;;14.90;99.90;;;;;;5031994;28;20460;-70
2021/08/26 03:51:12;;;;;;;20.80;19.23;;;14.90;99.90;;;;;;5029953;28;20457;-70
2021/08/26 03:53:39;;;;;;;20.83;19.43;;;14.90;99.90;;;;;;5035360;28;20474;-69
2021/08/26 03:56:06;;;;;;;24.40;21.63;;;14.90;99.90;;;;;;5035251;28;21076;-69
2021/08/26 03:58:33;;;;;;;21.20;19.23;;;14.90;99.90;;;;;;5036549;28;20495;-70
2021/08/26 04:01:04;;;;;;;20.43;18.83;;;15.00;99.90;;;;;;5030482;28;20525;-68
2021/08/26 04:03:30;;;;;;;21.17;19.07;;;15.00;99.90;;;;;;5025445;28;20842;-68
2021/08/26 04:05:57;;;;;;;20.87;19.27;;;15.00;99.90;;;;;;5025077;28;20461;-68
2021/08/26 04:08:25;;;;;;;22.80;19.60;;;15.00;99.90;;;;;;5022484;28;20456;-70
2021/08/26 04:10:52;;;;;;;20.50;18.90;;;15.00;99.90;;;;;;5025416;28;21021;-71
2021/08/26 04:13:20;;;;;;;22.03;20.03;;;15.00;99.90;;;;;;5033474;28;20466;-69
2021/08/26 04:15:47;;;;;;;20.67;18.77;;;15.00;99.90;;;;;;5027660;27;20452;-71
2021/08/26 04:18:15;;;;;;;21.57;19.37;;;15.00;99.90;;;;;;5030342;28;20965;-69
2021/08/26 04:20:43;;;;;;;21.63;19.63;;;15.00;99.90;;;;;;5027379;28;20464;-70
2021/08/26 04:23:10;;;;;;;21.13;19.10;;;15.00;99.90;;;;;;5032415;28;20839;-69
2021/08/26 04:25:37;;;;;;;20.07;18.47;;;15.00;99.90;;;;;;5029834;28;20463;-69
2021/08/26 04:28:05;;;;;;;21.13;19.20;;;15.00;99.90;;;;;;5040911;27;20989;-69
2021/08/26 04:30:32;;;;;;;19.67;17.87;;;15.00;99.90;;;;;;5032097;28;20495;-70
2021/08/26 04:32:59;;;;;;;19.67;17.97;;;15.00;99.90;;;;;;5031469;28;20465;-69
2021/08/26 04:35:27;;;;;;;18.97;17.30;;;14.90;99.90;;;;;;5026856;28;21044;-69
2021/08/26 04:37:54;;;;;;;18.90;17.40;;;14.90;99.90;;;;;;5032728;28;20463;-72
2021/08/26 04:40:21;;;;;;;19.13;17.43;;;14.90;99.90;;;;;;5028887;28;20461;-69
2021/08/26 04:42:48;;;;;;;20.60;17.10;;;14.90;99.90;;;;;;5026228;28;21011;-69
2021/08/26 04:45:15;;;;;;;18.47;16.80;;;14.90;99.90;;;;;;5027647;28;20461;-69
2021/08/26 04:47:42;;;;;;;17.80;16.30;;;14.90;99.90;;;;;;5026649;28;20962;-69
2021/08/26 04:50:10;;;;;;;17.93;16.03;;;14.90;99.90;;;;;;5032468;28;20488;-68
2021/08/26 04:52:39;;;;;;;18.33;16.60;;;14.80;99.90;;;;;;5037482;28;20471;-68
2021/08/26 04:55:07;;;;;;;20.80;19.00;;;14.80;99.90;;;;;;5022657;28;20461;-68
2021/08/26 04:57:34;;;;;;;21.23;18.40;;;14.80;99.90;;;;;;5023387;28;20873;-69
2021/08/26 05:00:01;;;;;;;21.23;19.30;;;14.80;99.90;;;;;;5021587;28;20464;-69
2021/08/26 05:02:28;;;;;;;21.90;19.60;;;14.90;99.90;;;;;;5025235;28;20465;-68
2021/08/26 05:04:55;;;;;;;21.90;19.70;;;14.80;99.90;;;;;;5032295;28;20464;-71
2021/08/26 05:07:21;;;;;;;22.10;19.97;;;14.80;99.90;;;;;;5022610;28;20783;-68
2021/08/26 05:09:50;;;;;;;21.53;19.67;;;14.80;99.90;;;;;;5026886;28;20488;-69
2021/08/26 05:12:17;;;;;;;22.30;20.00;;;14.80;99.90;;;;;;5029764;28;20461;-68
2021/08/26 05:14:44;;;;;;;22.53;20.43;;;14.80;99.90;;;;;;5030853;28;20464;-68
2021/08/26 05:17:11;;;;;;;22.43;20.30;;;14.90;99.90;;;;;;5025290;28;20488;-69
2021/08/26 05:19:38;;;;;;;23.67;20.93;;;14.80;99.90;;;;;;5030351;28;20464;-69
2021/08/26 05:22:05;;;;;;;21.70;20.10;;;14.80;99.90;;;;;;5025368;28;20460;-68
2021/08/26 05:24:32;;;;;;;21.03;19.40;;;14.70;99.90;;;;;;5036472;28;20963;-71
2021/08/26 05:27:00;;;;;;;20.70;18.87;;;14.70;99.90;;;;;;5027510;28;20468;-68
2021/08/26 05:29:28;;;;;;;20.90;19.20;;;14.70;99.90;;;;;;5025871;28;20468;-69
2021/08/26 05:31:55;;;;;;;21.90;19.73;;;14.70;99.90;;;;;;5035321;27;20548;-69
2021/08/26 05:34:22;;;;;;;21.67;19.53;;;14.70;99.90;;;;;;5023195;28;20517;-69
2021/08/26 05:36:49;;;;;;;19.63;17.80;;;14.80;99.90;;;;;;5028979;28;20460;-72
2021/08/26 05:39:16;;;;;;;20.30;18.30;;;14.80;99.90;;;;;;5029062;28;20947;-69
2021/08/26 05:41:45;;;;;;;24.00;18.23;;;14.80;99.90;;;;;;5019687;28;20870;-68
2021/08/26 05:44:14;;;;;;;20.67;18.47;;;14.70;99.90;;;;;;5021467;28;20538;-69
2021/08/26 05:46:41;;;;;;;21.93;17.57;;;14.80;99.90;;;;;;5022335;28;20505;-69
2021/08/26 05:49:09;;;;;;;24.30;17.97;;;14.80;99.90;;;;;;5026261;28;20471;-69
2021/08/26 05:51:36;;;;;;;21.53;16.00;;;14.80;99.90;;;;;;5033136;28;20559;-69
2021/08/26 05:54:04;;;;;;;23.97;16.80;;;14.80;99.90;;;;;;5017861;28;20506;-69
2021/08/26 05:56:31;;;;;;;17.27;15.50;;;14.80;99.90;;;;;;5019060;28;20778;-69
2021/08/26 05:58:59;;;;;;;17.80;15.97;;;14.80;99.90;;;;;;5017617;28;20540;-69
2021/08/26 06:01:29;;;;;;;24.13;15.77;;;14.80;99.90;;;;;;5023232;27;20481;-69
2021/08/26 06:03:56;;;;;;;15.97;14.33;;;14.80;99.90;;;;;;5025490;28;21025;-69
2021/08/26 06:06:23;;;;;;;19.83;16.60;;;14.90;99.90;;;;;;5022092;28;20824;-70
2021/08/26 06:08:50;;;;;;;26.80;17.10;;;14.90;99.90;;;;;;5015954;28;20460;-70
2021/08/26 06:11:18;;;;;;;26.90;15.83;;;14.90;99.90;;;;;;5025023;28;21123;-71
2021/08/26 06:13:45;;;;;;;18.10;15.60;;;15.00;99.90;;;;;;5014373;28;20469;-69
2021/08/26 06:16:12;;;;;;;18.47;16.10;;;15.00;99.90;;;;;;5023608;28;20504;-69
2021/08/26 06:18:41;;;;;;;26.27;17.20;;;15.00;99.90;;;;;;5029776;28;20477;-69
2021/08/26 06:21:11;;;;;;;20.30;17.10;;;15.00;99.90;;;;;;5022796;28;20483;-69
2021/08/26 06:23:38;;;;;;;18.67;16.53;;;15.10;99.90;;;;;;5020592;28;20464;-69
2021/08/26 06:26:05;;;;;;;18.00;16.10;;;15.20;99.90;;;;;;5019308;28;20459;-69
2021/08/26 06:28:32;;;;;;;17.50;15.70;;;15.20;99.90;;;;;;5023561;28;20480;-69
2021/08/26 06:30:59;;;;;;;23.60;16.20;;;15.30;99.90;;;;;;5017439;28;21025;-71
2021/08/26 06:33:26;;;;;;;18.83;16.10;;;15.40;99.90;;;;;;5022548;28;20468;-69
2021/08/26 06:35:55;;;;;;;19.30;16.20;;;15.40;99.90;;;;;;5022742;28;20457;-71
2021/08/26 06:38:22;;;;;;;18.90;16.93;;;15.40;99.90;;;;;;5021641;28;20495;-71
2021/08/26 06:40:50;;;;;;;21.40;19.20;;;15.50;99.90;;;;;;5020687;28;20453;-69
2021/08/26 06:43:17;;;;;;;20.13;17.33;;;15.50;99.90;;;;;;5024514;27;20545;-71
2021/08/26 06:45:44;;;;;;;18.87;16.70;;;15.50;99.90;;;;;;5024425;28;20475;-69
2021/08/26 06:48:11;;;;;;;24.73;16.90;;;15.70;99.90;;;;;;5022984;28;20534;-69
2021/08/26 06:50:39;;;;;;;17.83;16.03;;;15.80;99.90;;;;;;5022327;28;20678;-69
2021/08/26 06:53:07;;;;;;;19.63;17.63;;;15.80;99.90;;;;;;5025143;28;20457;-69
2021/08/26 06:55:35;;;;;;;21.97;17.30;;;16.00;99.90;;;;;;5024780;28;20467;-69
2021/08/26 06:58:03;;;;;;;24.80;17.80;;;16.00;99.90;;;;;;5030975;28;20492;-69
2021/08/26 07:00:30;;;;;;;18.40;16.73;;;16.00;99.90;;;;;;5024239;28;20464;-71
2021/08/26 07:02:57;;;;;;;17.73;15.57;;;16.00;99.90;;;;;;5030998;28;20483;-69
2021/08/26 07:05:24;;;;;;;17.60;16.17;;;16.10;99.90;;;;;;5025868;28;20457;-69
2021/08/26 07:07:51;;;;;;;22.53;17.20;;;16.10;99.90;;;;;;5023934;28;20472;-71
2021/08/26 07:10:19;;;;;;;18.47;16.80;;;16.20;99.90;;;;;;5026542;28;20480;-69
2021/08/26 07:12:48;;;;;;;18.13;16.40;;;16.20;99.90;;;;;;5020847;28;20460;-69
2021/08/26 07:15:14;;;;;;;17.50;16.30;;;16.30;99.90;;;;;;5026126;28;20460;-69
2021/08/26 07:17:42;;;;;;;18.67;17.17;;;16.40;99.90;;;;;;5017837;28;20938;-69
2021/08/26 07:20:10;;;;;;;18.07;16.60;;;16.20;99.90;;;;;;5028108;28;20464;-69
2021/08/26 07:22:37;;;;;;;19.27;17.57;;;16.30;99.90;;;;;;5027859;28;20464;-69
2021/08/26 07:25:04;;;;;;;19.27;16.50;;;16.40;99.90;;;;;;5028608;28;20459;-72
2021/08/26 07:27:33;;;;;;;18.23;16.30;;;16.30;99.90;;;;;;5031069;28;20988;-70
2021/08/26 07:30:00;;;;;;;19.33;17.37;;;16.40;99.90;;;;;;5022027;28;20469;-69
2021/08/26 07:32:28;;;;;;;19.00;17.43;;;16.50;99.90;;;;;;5025712;28;20447;-69
2021/08/26 07:34:55;;;;;;;19.30;17.30;;;16.40;99.90;;;;;;5027858;28;20456;-71
2021/08/26 07:37:23;;;;;;;20.30;17.03;;;16.50;99.90;;;;;;5028552;28;20467;-69
2021/08/26 07:39:50;;;;;;;18.97;17.00;;;16.40;99.90;;;;;;5030381;28;20469;-69
2021/08/26 07:42:17;;;;;;;20.10;16.80;;;16.20;99.90;;;;;;5026756;28;20468;-69
2021/08/26 07:44:45;;;;;;;22.07;16.30;;;16.00;99.90;;;;;;5030551;28;20465;-68
2021/08/26 07:47:12;;;;;;;16.30;14.90;;;15.80;99.90;;;;;;5030359;28;20810;-69
2021/08/26 07:49:40;;;;;;;16.90;15.40;;;15.70;99.90;;;;;;5026809;28;20508;-70
2021/08/26 07:52:07;;;;;;;17.70;16.10;;;15.70;99.90;;;;;;5030716;28;21110;-69
2021/08/26 07:54:35;;;;;;;24.40;18.73;;;15.70;99.90;;;;;;5017899;27;20963;-71
2021/08/26 07:57:01;;;;;;;17.63;15.97;;;16.00;99.90;;;;;;5026887;28;20475;-69
2021/08/26 07:59:29;;;;;;;22.97;17.13;;;16.30;99.90;;;;;;5025204;28;20460;-68
2021/08/26 08:01:57;;;;;;;18.43;16.60;;;16.60;99.90;;;;;;5031629;28;20463;-68
2021/08/26 08:04:24;;;;;;;22.73;16.50;;;16.90;99.90;;;;;;5017368;28;20491;-71
2021/08/26 08:06:51;;;;;;;19.03;16.40;;;17.00;99.90;;;;;;5013203;28;20469;-68
2021/08/26 08:09:17;;;;;;;19.77;16.60;;;17.20;99.90;;;;;;5012817;28;21009;-69
2021/08/26 08:11:44;;;;;;;19.00;17.17;;;17.40;99.90;;;;;;5017949;28;21121;-68
2021/08/26 08:14:11;;;;;;;19.00;17.23;;;17.60;99.90;;;;;;5028601;28;20471;-69
2021/08/26 08:16:38;;;;;;;17.67;16.03;;;17.80;99.90;;;;;;5016952;28;20485;-71
2021/08/26 08:19:07;;;;;;;20.30;18.20;;;17.90;99.90;;;;;;5012600;28;21072;-72
2021/08/26 08:21:34;;;;;;;35.37;17.63;;;18.00;99.90;;;;;;5017563;28;20462;-69
2021/08/26 08:24:01;;;;;;;19.37;16.83;;;18.00;99.90;;;;;;5028367;28;20467;-69
2021/08/26 08:26:28;;;;;;;17.27;16.13;;;18.10;99.90;;;;;;5024689;28;20814;-69
2021/08/26 08:28:56;;;;;;;18.03;16.43;;;17.90;99.90;;;;;;5017383;28;20464;-70
2021/08/26 08:31:23;;;;;;;17.17;16.00;;;17.90;99.90;;;;;;5012082;28;20492;-69
2021/08/26 08:33:50;;;;;;;17.47;16.10;;;17.90;99.90;;;;;;5014088;28;20831;-71
2021/08/26 08:36:20;;;;;;;17.27;15.80;;;17.70;99.90;;;;;;5018739;28;20469;-70
2021/08/26 08:38:47;;;;;;;17.00;15.70;;;17.50;99.90;;;;;;5022206;28;20460;-71
2021/08/26 08:41:17;;;;;;;17.90;15.90;;;17.50;99.90;;;;;;5018324;28;20472;-70
2021/08/26 08:43:44;;;;;;;19.63;15.30;;;17.50;99.90;;;;;;5018780;28;20951;-68
2021/08/26 08:46:13;;;;;;;20.73;16.70;;;17.80;99.90;;;;;;5018235;28;21035;-68
2021/08/26 08:48:42;;;;;;;15.33;14.30;;;18.00;99.90;;;;;;5015010;28;20476;-68
2021/08/26 08:51:10;;;;;;;16.53;15.00;;;17.80;99.90;;;;;;5019084;28;20814;-68
2021/08/26 08:53:39;;;;;;;16.17;15.00;;;17.60;99.90;;;;;;5015828;28;20477;-67
2021/08/26 08:56:08;;;;;;;16.93;15.73;;;17.70;99.90;;;;;;5020748;28;20457;-72
2021/08/26 08:58:37;;;;;;;16.93;15.57;;;17.80;99.90;;;;;;5020351;28;21005;-71
2021/08/26 09:01:04;;;;;;;15.53;14.40;;;17.80;99.90;;;;;;5015096;28;20464;-69
2021/08/26 09:03:32;;;;;;;17.53;16.00;;;17.60;99.90;;;;;;5027912;28;20659;-67
2021/08/26 09:06:00;;;;;;;18.07;16.30;;;17.50;99.90;;;;;;5013306;28;20546;-69
2021/08/26 09:08:29;;;;;;;20.67;18.73;;;17.30;99.90;;;;;;5017131;28;20865;-70
2021/08/26 09:11:12;;;;;;;22.47;18.20;;;16.80;99.90;;;;;;5019877;28;21124;-71
2021/08/26 09:13:40;;;;;;;17.70;15.90;;;16.50;99.90;;;;;;5015996;28;20496;-70
2021/08/26 09:16:08;;;;;;;16.33;14.77;;;16.50;99.90;;;;;;5023546;28;20488;-71
2021/08/26 09:18:35;;;;;;;16.80;15.27;;;16.70;99.90;;;;;;5018586;28;20948;-69
2021/08/26 09:21:05;;;;;;;17.80;15.93;;;17.00;99.90;;;;;;5012499;28;20468;-71
2021/08/26 09:23:33;;;;;;;17.87;16.20;;;17.10;99.90;;;;;;5018354;28;20976;-70
2021/08/26 09:26:19;;;;;;;16.93;15.43;;;17.30;99.90;;;;;;5014653;28;21236;-71
2021/08/26 09:28:47;;;;;;;21.20;19.33;;;17.60;99.90;;;;;;5023084;28;20480;-69
2021/08/26 09:31:17;;;;;;;28.40;22.40;;;17.30;99.90;;;;;;5017942;28;20524;-70
2021/08/26 09:33:55;;;;;;;21.87;20.17;;;16.80;99.90;;;;;;5016382;28;20902;-67
2021/08/26 09:36:24;;;;;;;23.07;20.53;;;16.40;99.90;;;;;;5015681;28;20476;-66
2021/08/26 09:38:53;;;;;;;21.83;19.80;;;16.40;99.90;;;;;;5019170;28;20454;-68
2021/08/26 09:41:43;;;;;;;34.17;20.77;;;16.40;99.90;;;;;;5014848;28;20608;-71
2021/08/26 09:44:12;;;;;;;24.57;22.07;;;16.50;99.90;;;;;;5014395;28;20508;-69
2021/08/26 09:46:40;;;;;;;22.10;19.90;;;16.60;99.90;;;;;;5012653;28;20508;-67
2021/08/26 09:49:09;;;;;;;19.00;17.00;;;17.20;99.90;;;;;;5020398;28;20464;-69
2021/08/26 09:51:36;;;;;;;19.20;17.47;;;17.70;99.90;;;;;;5016058;28;20488;-68
2021/08/26 09:54:04;;;;;;;19.93;18.07;;;17.70;99.90;;;;;;5015025;28;20462;-68
2021/08/26 09:56:44;;;;;;;22.37;20.37;;;17.70;99.90;;;;;;5015934;28;20832;-70
2021/08/26 09:59:11;;;;;;;21.70;19.70;;;17.20;99.90;;;;;;5015932;28;20478;-70
2021/08/26 10:01:39;;;;;;;23.27;18.60;;;16.90;99.90;;;;;;5018851;28;20465;-70
2021/08/26 10:04:27;;;;;;;22.40;16.67;;;16.60;99.90;;;;;;5018277;28;20453;-68
2021/08/26 10:06:55;;;;;;;16.87;15.50;;;17.00;99.90;;;;;;5012177;28;20458;-71
2021/08/26 10:09:24;;;;;;;16.50;15.00;;;17.20;99.90;;;;;;5012221;28;20940;-69
2021/08/26 10:11:52;;;;;;;16.20;15.20;;;18.00;99.90;;;;;;5016396;28;20481;-69
2021/08/26 10:14:21;;;;;;;15.67;14.13;;;19.10;99.90;;;;;;5021429;28;20461;-69
2021/08/26 10:16:49;;;;;;;16.60;15.10;;;20.10;99.90;;;;;;5020007;28;20580;-70
2021/08/26 10:19:17;;;;;;;16.53;15.27;;;19.70;99.90;;;;;;5013589;28;20835;-71
2021/08/26 10:21:45;;;;;;;16.40;15.27;;;18.70;99.90;;;;;;5017816;28;20472;-71
2021/08/26 10:24:13;;;;;;;15.90;14.77;;;18.00;99.90;;;;;;5022634;28;20469;-71
2021/08/26 10:26:42;;;;;;;15.70;14.60;;;17.70;99.90;;;;;;5018931;28;20471;-69
2021/08/26 10:29:12;;;;;;;14.93;13.93;;;17.90;99.90;;;;;;5017939;28;20465;-70
2021/08/26 10:31:40;;;;;;;17.37;15.90;;;18.40;99.90;;;;;;5016049;28;21011;-70
2021/08/26 10:34:21;;;;;;;16.87;15.37;;;18.80;99.90;;;;;;5016889;28;20458;-68
2021/08/26 10:37:11;;;;;;;15.90;14.80;;;18.80;99.90;;;;;;5010167;28;20457;-70
2021/08/26 10:39:41;;;;;;;17.17;15.97;;;18.90;99.90;;;;;;5014652;28;20833;-70
2021/08/26 10:42:40;;;;;;;16.17;14.97;;;18.90;99.90;;;;;;5018200;28;20479;-68
2021/08/26 10:45:11;;;;;;;17.07;15.87;;;18.80;99.90;;;;;;5017196;28;20467;-69
2021/08/26 10:48:14;;;;;;;15.60;14.70;;;18.90;99.90;;;;;;5017656;28;20553;-69
2021/08/26 10:50:42;;;;;;;15.80;14.53;;;19.20;99.90;;;;;;5017527;28;20496;-68
2021/08/26 10:53:11;;;;;;;16.13;14.70;;;19.10;99.90;;;;;;5015769;28;20492;-69
2021/08/26 10:55:40;;;;;;;17.80;14.90;;;19.40;99.90;;;;;;5019481;28;20462;-68
2021/08/26 10:58:39;;;;;;;16.23;14.97;;;20.10;99.90;;;;;;5018573;28;20480;-68
2021/08/26 11:01:15;;;;;;;15.53;14.60;;;20.70;99.90;;;;;;5020400;28;21010;-69
2021/08/26 11:03:57;;;;;;;16.17;15.37;;;20.50;99.90;;;;;;5010300;28;20518;-69
2021/08/26 11:06:41;;;;;;;16.13;15.10;;;20.50;99.90;;;;;;5014788;28;20462;-69
2021/08/26 11:09:41;;;;;;;15.40;14.40;;;20.90;99.90;;;;;;5011256;28;20545;-70
2021/08/26 11:12:27;;;;;;;15.07;14.07;;;20.80;99.90;;;;;;5020039;28;20567;-68
2021/08/26 11:14:56;;;;;;;15.97;14.67;;;20.10;99.90;;;;;;5024177;28;20456;-69
2021/08/26 11:17:33;;;;;;;15.00;14.17;;;20.00;99.90;;;;;;5018214;28;20492;-69
2021/08/26 11:20:41;;;;;;;17.87;15.50;;;19.90;99.90;;;;;;5026269;28;20572;-71
2021/08/26 11:23:11;;;;;;;15.90;14.67;;;19.70;99.90;;;;;;5020387;28;20978;-69
2021/08/26 11:25:39;;;;;;;15.90;14.70;;;19.60;99.90;;;;;;5019848;28;20492;-69
2021/08/26 11:28:30;;;;;;;23.00;20.87;;;19.40;99.90;;;;;;5020156;28;20464;-70
2021/08/26 11:31:18;;;;;;;22.87;21.37;;;18.50;99.90;;;;;;5018035;28;20457;-68
2021/08/26 11:33:48;;;;;;;21.13;19.60;;;17.90;99.90;;;;;;5015330;28;20860;-69
2021/08/26 11:36:16;;;;;;;20.43;19.10;;;17.70;99.90;;;;;;5014366;28;20496;-68
2021/08/26 11:38:54;;;;;;;19.20;17.60;;;17.60;99.90;;;;;;5018747;28;20812;-69
2021/08/26 11:41:21;;;;;;;17.90;16.40;;;17.40;99.90;;;;;;5018509;28;20985;-69
2021/08/26 11:43:49;;;;;;;16.70;15.63;;;17.20;99.90;;;;;;5018913;28;20461;-67
2021/08/26 11:46:17;;;;;;;17.23;16.20;;;17.30;99.90;;;;;;5016281;28;20906;-67
2021/08/26 11:48:53;;;;;;;18.23;16.63;;;17.30;99.90;;;;;;5019828;28;20981;-68
2021/08/26 11:51:25;;;;;;;17.00;15.70;;;17.40;99.90;;;;;;5015675;28;20486;-68
2021/08/26 11:53:52;;;;;;;17.20;15.90;;;17.70;99.90;;;;;;5020005;28;20878;-68
2021/08/26 11:56:19;;;;;;;16.97;15.43;;;18.00;99.90;;;;;;5017150;28;20460;-68
2021/08/26 11:58:47;;;;;;;16.17;15.17;;;18.20;99.90;;;;;;5013697;28;20477;-68
2021/08/26 12:01:22;;;;;;;16.50;15.20;;;18.50;99.90;;;;;;5017381;28;20840;-68
2021/08/26 12:03:56;;;;;;;16.20;15.00;;;18.60;99.90;;;;;;5023136;28;20459;-68
2021/08/26 12:06:25;;;;;;;15.77;14.77;;;18.70;99.90;;;;;;5022786;28;20543;-68
2021/08/26 12:08:53;;;;;;;16.70;15.23;;;18.90;99.90;;;;;;5018226;28;20461;-68
2021/08/26 12:11:27;;;;;;;16.17;15.07;;;19.20;99.90;;;;;;5015030;28;20502;-68
2021/08/26 12:14:05;;;;;;;17.07;15.93;;;19.50;99.90;;;;;;5022079;28;20452;-71
2021/08/26 12:16:32;;;;;;;17.23;15.60;;;19.80;99.90;;;;;;5014111;28;20492;-68
2021/08/26 12:19:00;;;;;;;16.50;15.30;;;20.20;99.90;;;;;;5016464;28;20461;-70
2021/08/26 12:21:28;;;;;;;15.47;14.30;;;20.70;99.90;;;;;;5014269;28;20483;-70
2021/08/26 12:23:55;;;;;;;15.43;14.10;;;21.30;99.90;;;;;;5008833;28;20565;-68
2021/08/26 12:26:22;;;;;;;15.97;15.00;;;21.70;99.90;;;;;;5016164;28;20554;-69
2021/08/26 12:28:55;;;;;;;15.57;14.60;;;21.90;99.90;;;;;;5031514;27;20698;-68
2021/08/26 12:31:23;;;;;;;15.17;14.30;;;22.10;99.90;;;;;;5017518;27;20464;-69
2021/08/26 12:33:58;;;;;;;14.50;13.50;;;22.20;99.90;;;;;;5013317;28;20472;-68
2021/08/26 12:36:27;;;;;;;16.67;15.47;;;22.30;99.90;;;;;;5011700;28;20483;-70
2021/08/26 12:38:54;;;;;;;14.27;13.47;;;22.30;99.90;;;;;;5006385;28;20966;-69
2021/08/26 12:41:23;;;;;;;16.90;15.20;;;22.10;99.90;;;;;;5022851;28;20535;-71
2021/08/26 12:43:52;;;;;;;15.73;14.87;;;21.90;99.90;;;;;;5015946;28;20474;-68